sensor_id;sensor_type;location;lat;lon;timestamp;P1;durP1;ratioP1;P2;durP2;ratioP2
5989;SDS011;14149;53.562;10.032;2022-08-05T00:00:47;20.40;;;9.23;;
5989;SDS011;14149;53.562;10.032;2022-08-05T00:03:13;14.93;;;7.57;;
5989;SDS011;14149;53.562;10.032;2022-08-05T00:05:39;17.57;;;8.37;;
5989;SDS011;14149;53.562;10.032;2022-08-05T00:08:07;19.33;;;8.67;;
5989;SDS011;14149;53.562;10.032;2022-08-05T00:10:33;19.70;;;8.03;;
5989;SDS011;14149;53.562;10.032;2022-08-05T00:12:59;16.43;;;7.80;;
5989;SDS011;14149;53.562;10.032;2022-08-05T00:15:25;19.00;;;8.30;;
5989;SDS011;14149;53.562;10.032;2022-08-05T00:17:51;19.73;;;7.77;;
5989;SDS011;14149;53.562;10.032;2022-08-05T00:20:17;12.90;;;6.30;;
5989;SDS011;14149;53.562;10.032;2022-08-05T00:22:43;13.07;;;6.97;;
5989;SDS011;14149;53.562;10.032;2022-08-05T00:25:09;16.40;;;7.27;;
5989;SDS011;14149;53.562;10.032;2022-08-05T00:27:35;17.30;;;6.47;;
5989;SDS011;14149;53.562;10.032;2022-08-05T00:30:02;12.50;;;6.33;;
5989;SDS011;14149;53.562;10.032;2022-08-05T00:32:28;12.20;;;5.83;;
5989;SDS011;14149;53.562;10.032;2022-08-05T00:34:54;11.37;;;5.97;;
5989;SDS011;14149;53.562;10.032;2022-08-05T00:37:20;10.77;;;5.53;;
5989;SDS011;14149;53.562;10.032;2022-08-05T00:39:46;9.17;;;4.67;;
5989;SDS011;14149;53.562;10.032;2022-08-05T00:42:13;10.53;;;4.70;;
5989;SDS011;14149;53.562;10.032;2022-08-05T00:44:41;10.70;;;4.80;;
5989;SDS011;14149;53.562;10.032;2022-08-05T00:47:07;11.00;;;4.90;;
5989;SDS011;14149;53.562;10.032;2022-08-05T00:49:33;14.63;;;4.60;;
5989;SDS011;14149;53.562;10.032;2022-08-05T00:51:59;9.53;;;4.20;;
5989;SDS011;14149;53.562;10.032;2022-08-05T00:54:25;11.23;;;4.23;;
5989;SDS011;14149;53.562;10.032;2022-08-05T00:56:51;10.53;;;4.77;;
5989;SDS011;14149;53.562;10.032;2022-08-05T00:59:17;9.47;;;3.77;;
5989;SDS011;14149;53.562;10.032;2022-08-05T01:01:43;9.80;;;3.90;;
5989;SDS011;14149;53.562;10.032;2022-08-05T01:04:09;14.30;;;4.10;;
5989;SDS011;14149;53.562;10.032;2022-08-05T01:06:35;9.30;;;3.80;;
5989;SDS011;14149;53.562;10.032;2022-08-05T01:09:01;8.87;;;3.63;;
5989;SDS011;14149;53.562;10.032;2022-08-05T01:11:31;9.67;;;4.50;;
5989;SDS011;14149;53.562;10.032;2022-08-05T01:16:52;7.80;;;3.57;;
5989;SDS011;14149;53.562;10.032;2022-08-05T01:22:02;12.40;;;4.07;;
5989;SDS011;14149;53.562;10.032;2022-08-05T01:24:40;8.40;;;3.83;;
5989;SDS011;14149;53.562;10.032;2022-08-05T01:29:51;8.00;;;3.63;;
5989;SDS011;14149;53.562;10.032;2022-08-05T01:32:20;10.27;;;4.43;;
5989;SDS011;14149;53.562;10.032;2022-08-05T01:34:47;7.57;;;3.97;;
5989;SDS011;14149;53.562;10.032;2022-08-05T01:37:23;8.80;;;3.37;;
5989;SDS011;14149;53.562;10.032;2022-08-05T01:39:51;8.37;;;3.47;;
5989;SDS011;14149;53.562;10.032;2022-08-05T01:42:21;9.00;;;4.40;;
5989;SDS011;14149;53.562;10.032;2022-08-05T01:44:48;8.17;;;3.53;;
5989;SDS011;14149;53.562;10.032;2022-08-05T01:47:15;11.00;;;3.90;;
5989;SDS011;14149;53.562;10.032;2022-08-05T01:49:43;7.73;;;3.30;;
5989;SDS011;14149;53.562;10.032;2022-08-05T01:52:09;8.90;;;3.13;;
5989;SDS011;14149;53.562;10.032;2022-08-05T01:54:40;9.50;;;3.57;;
5989;SDS011;14149;53.562;10.032;2022-08-05T01:57:07;8.20;;;3.43;;
5989;SDS011;14149;53.562;10.032;2022-08-05T01:59:34;6.73;;;3.37;;
5989;SDS011;14149;53.562;10.032;2022-08-05T02:02:01;9.13;;;3.83;;
5989;SDS011;14149;53.562;10.032;2022-08-05T02:04:28;10.00;;;3.87;;
5989;SDS011;14149;53.562;10.032;2022-08-05T02:06:56;9.43;;;3.37;;
5989;SDS011;14149;53.562;10.032;2022-08-05T02:09:22;7.43;;;3.30;;
5989;SDS011;14149;53.562;10.032;2022-08-05T02:14:31;9.40;;;3.43;;
5989;SDS011;14149;53.562;10.032;2022-08-05T02:17:03;7.53;;;3.30;;
5989;SDS011;14149;53.562;10.032;2022-08-05T02:19:30;12.43;;;3.43;;
5989;SDS011;14149;53.562;10.032;2022-08-05T02:21:59;9.50;;;3.23;;
5989;SDS011;14149;53.562;10.032;2022-08-05T02:24:27;9.20;;;4.10;;
5989;SDS011;14149;53.562;10.032;2022-08-05T02:26:55;10.17;;;3.27;;
5989;SDS011;14149;53.562;10.032;2022-08-05T02:29:26;8.53;;;3.53;;
5989;SDS011;14149;53.562;10.032;2022-08-05T02:31:53;7.70;;;3.20;;
5989;SDS011;14149;53.562;10.032;2022-08-05T02:34:21;7.37;;;2.87;;
5989;SDS011;14149;53.562;10.032;2022-08-05T02:36:49;8.97;;;3.27;;
5989;SDS011;14149;53.562;10.032;2022-08-05T02:39:16;7.70;;;3.20;;
5989;SDS011;14149;53.562;10.032;2022-08-05T02:41:44;11.00;;;3.53;;
5989;SDS011;14149;53.562;10.032;2022-08-05T02:44:10;7.00;;;3.00;;
5989;SDS011;14149;53.562;10.032;2022-08-05T02:46:38;8.70;;;3.50;;
5989;SDS011;14149;53.562;10.032;2022-08-05T02:49:05;13.10;;;3.37;;
5989;SDS011;14149;53.562;10.032;2022-08-05T02:51:32;7.17;;;3.27;;
5989;SDS011;14149;53.562;10.032;2022-08-05T02:53:59;8.93;;;3.70;;
5989;SDS011;14149;53.562;10.032;2022-08-05T02:56:25;8.93;;;3.83;;
5989;SDS011;14149;53.562;10.032;2022-08-05T02:58:52;11.03;;;5.20;;
5989;SDS011;14149;53.562;10.032;2022-08-05T03:01:19;13.20;;;4.73;;
5989;SDS011;14149;53.562;10.032;2022-08-05T03:03:48;9.90;;;4.53;;
5989;SDS011;14149;53.562;10.032;2022-08-05T03:06:15;11.33;;;4.40;;
5989;SDS011;14149;53.562;10.032;2022-08-05T03:08:41;9.30;;;4.40;;
5989;SDS011;14149;53.562;10.032;2022-08-05T03:11:21;11.13;;;4.37;;
5989;SDS011;14149;53.562;10.032;2022-08-05T03:13:47;9.40;;;4.27;;
5989;SDS011;14149;53.562;10.032;2022-08-05T03:16:13;10.67;;;4.17;;
5989;SDS011;14149;53.562;10.032;2022-08-05T03:18:40;12.93;;;5.37;;
5989;SDS011;14149;53.562;10.032;2022-08-05T03:21:06;9.97;;;5.03;;
5989;SDS011;14149;53.562;10.032;2022-08-05T03:23:33;10.80;;;4.93;;
5989;SDS011;14149;53.562;10.032;2022-08-05T03:25:59;12.20;;;4.33;;
5989;SDS011;14149;53.562;10.032;2022-08-05T03:28:26;12.87;;;4.90;;
5989;SDS011;14149;53.562;10.032;2022-08-05T03:30:52;10.90;;;4.73;;
5989;SDS011;14149;53.562;10.032;2022-08-05T03:33:18;9.23;;;4.53;;
5989;SDS011;14149;53.562;10.032;2022-08-05T03:35:45;10.07;;;4.83;;
5989;SDS011;14149;53.562;10.032;2022-08-05T03:38:12;10.70;;;4.80;;
5989;SDS011;14149;53.562;10.032;2022-08-05T03:40:42;9.10;;;4.67;;
5989;SDS011;14149;53.562;10.032;2022-08-05T03:43:08;9.37;;;5.13;;
5989;SDS011;14149;53.562;10.032;2022-08-05T03:45:34;10.30;;;4.97;;
5989;SDS011;14149;53.562;10.032;2022-08-05T03:48:00;9.87;;;4.90;;
5989;SDS011;14149;53.562;10.032;2022-08-05T03:50:28;9.77;;;5.30;;
5989;SDS011;14149;53.562;10.032;2022-08-05T03:53:04;10.67;;;4.87;;
5989;SDS011;14149;53.562;10.032;2022-08-05T03:55:34;11.53;;;4.97;;
5989;SDS011;14149;53.562;10.032;2022-08-05T03:58:02;10.47;;;5.37;;
5989;SDS011;14149;53.562;10.032;2022-08-05T04:00:29;9.20;;;4.60;;
5989;SDS011;14149;53.562;10.032;2022-08-05T04:03:00;11.40;;;5.07;;
5989;SDS011;14149;53.562;10.032;2022-08-05T04:05:36;10.23;;;4.93;;
5989;SDS011;14149;53.562;10.032;2022-08-05T04:08:07;10.50;;;5.20;;
5989;SDS011;14149;53.562;10.032;2022-08-05T04:10:34;13.10;;;5.40;;
5989;SDS011;14149;53.562;10.032;2022-08-05T04:13:00;11.00;;;5.30;;
5989;SDS011;14149;53.562;10.032;2022-08-05T04:15:26;10.07;;;5.37;;
5989;SDS011;14149;53.562;10.032;2022-08-05T04:17:53;10.20;;;5.23;;
5989;SDS011;14149;53.562;10.032;2022-08-05T04:20:20;9.50;;;5.63;;
5989;SDS011;14149;53.562;10.032;2022-08-05T04:22:46;13.70;;;5.30;;
5989;SDS011;14149;53.562;10.032;2022-08-05T04:25:13;10.40;;;5.50;;
5989;SDS011;14149;53.562;10.032;2022-08-05T04:27:39;9.60;;;5.27;;
5989;SDS011;14149;53.562;10.032;2022-08-05T04:30:05;15.93;;;6.10;;
5989;SDS011;14149;53.562;10.032;2022-08-05T04:32:32;12.40;;;5.63;;
5989;SDS011;14149;53.562;10.032;2022-08-05T04:34:58;10.43;;;6.07;;
5989;SDS011;14149;53.562;10.032;2022-08-05T04:37:24;12.23;;;6.23;;
5989;SDS011;14149;53.562;10.032;2022-08-05T04:39:50;16.10;;;5.40;;
5989;SDS011;14149;53.562;10.032;2022-08-05T04:42:16;18.30;;;6.50;;
5989;SDS011;14149;53.562;10.032;2022-08-05T04:44:42;11.90;;;6.23;;
5989;SDS011;14149;53.562;10.032;2022-08-05T04:47:08;11.77;;;6.20;;
5989;SDS011;14149;53.562;10.032;2022-08-05T04:49:34;11.60;;;5.70;;
5989;SDS011;14149;53.562;10.032;2022-08-05T04:52:00;14.70;;;6.00;;
5989;SDS011;14149;53.562;10.032;2022-08-05T04:54:26;10.80;;;5.27;;
5989;SDS011;14149;53.562;10.032;2022-08-05T04:56:53;11.70;;;6.23;;
5989;SDS011;14149;53.562;10.032;2022-08-05T04:59:19;12.57;;;6.20;;
5989;SDS011;14149;53.562;10.032;2022-08-05T05:01:46;10.87;;;5.93;;
5989;SDS011;14149;53.562;10.032;2022-08-05T05:04:13;15.43;;;6.23;;
5989;SDS011;14149;53.562;10.032;2022-08-05T05:06:39;12.73;;;5.40;;
5989;SDS011;14149;53.562;10.032;2022-08-05T05:09:05;13.13;;;5.47;;
5989;SDS011;14149;53.562;10.032;2022-08-05T05:11:31;12.10;;;5.80;;
5989;SDS011;14149;53.562;10.032;2022-08-05T05:13:57;9.17;;;5.30;;
5989;SDS011;14149;53.562;10.032;2022-08-05T05:16:23;12.17;;;5.50;;
5989;SDS011;14149;53.562;10.032;2022-08-05T05:18:49;11.17;;;6.33;;
5989;SDS011;14149;53.562;10.032;2022-08-05T05:21:15;12.33;;;6.80;;
5989;SDS011;14149;53.562;10.032;2022-08-05T05:23:41;15.20;;;6.87;;
5989;SDS011;14149;53.562;10.032;2022-08-05T05:26:08;11.30;;;6.07;;
5989;SDS011;14149;53.562;10.032;2022-08-05T05:28:34;12.00;;;6.40;;
5989;SDS011;14149;53.562;10.032;2022-08-05T05:31:00;10.13;;;6.00;;
5989;SDS011;14149;53.562;10.032;2022-08-05T05:33:26;12.70;;;6.50;;
5989;SDS011;14149;53.562;10.032;2022-08-05T05:35:53;11.97;;;7.10;;
5989;SDS011;14149;53.562;10.032;2022-08-05T05:38:19;12.03;;;6.93;;
5989;SDS011;14149;53.562;10.032;2022-08-05T05:40:45;12.60;;;6.50;;
5989;SDS011;14149;53.562;10.032;2022-08-05T05:43:11;15.50;;;6.20;;
5989;SDS011;14149;53.562;10.032;2022-08-05T05:45:37;11.47;;;6.97;;
5989;SDS011;14149;53.562;10.032;2022-08-05T05:48:03;10.87;;;6.33;;
5989;SDS011;14149;53.562;10.032;2022-08-05T05:50:33;13.43;;;6.17;;
5989;SDS011;14149;53.562;10.032;2022-08-05T05:53:00;17.13;;;6.90;;
5989;SDS011;14149;53.562;10.032;2022-08-05T05:55:26;12.53;;;5.90;;
5989;SDS011;14149;53.562;10.032;2022-08-05T05:57:52;13.87;;;6.60;;
5989;SDS011;14149;53.562;10.032;2022-08-05T06:00:19;10.17;;;6.00;;
5989;SDS011;14149;53.562;10.032;2022-08-05T06:02:46;11.50;;;6.17;;
5989;SDS011;14149;53.562;10.032;2022-08-05T06:05:12;14.37;;;6.40;;
5989;SDS011;14149;53.562;10.032;2022-08-05T06:07:39;9.30;;;5.57;;
5989;SDS011;14149;53.562;10.032;2022-08-05T06:10:06;13.90;;;7.23;;
5989;SDS011;14149;53.562;10.032;2022-08-05T06:12:32;12.97;;;5.93;;
5989;SDS011;14149;53.562;10.032;2022-08-05T06:14:59;10.60;;;5.30;;
5989;SDS011;14149;53.562;10.032;2022-08-05T06:17:25;12.63;;;6.40;;
5989;SDS011;14149;53.562;10.032;2022-08-05T06:19:52;11.20;;;6.00;;
5989;SDS011;14149;53.562;10.032;2022-08-05T06:22:22;10.80;;;6.27;;
5989;SDS011;14149;53.562;10.032;2022-08-05T06:24:48;11.57;;;6.93;;
5989;SDS011;14149;53.562;10.032;2022-08-05T06:27:14;13.80;;;6.93;;
5989;SDS011;14149;53.562;10.032;2022-08-05T06:29:40;17.70;;;6.73;;
5989;SDS011;14149;53.562;10.032;2022-08-05T06:32:10;10.63;;;5.80;;
5989;SDS011;14149;53.562;10.032;2022-08-05T06:34:36;14.33;;;7.07;;
5989;SDS011;14149;53.562;10.032;2022-08-05T06:37:02;15.53;;;5.73;;
5989;SDS011;14149;53.562;10.032;2022-08-05T06:39:28;15.63;;;6.40;;
5989;SDS011;14149;53.562;10.032;2022-08-05T06:41:57;12.57;;;6.50;;
5989;SDS011;14149;53.562;10.032;2022-08-05T06:44:26;11.43;;;5.87;;
5989;SDS011;14149;53.562;10.032;2022-08-05T06:46:52;11.40;;;6.37;;
5989;SDS011;14149;53.562;10.032;2022-08-05T06:49:18;13.70;;;6.73;;
5989;SDS011;14149;53.562;10.032;2022-08-05T06:51:44;10.73;;;6.20;;
5989;SDS011;14149;53.562;10.032;2022-08-05T06:54:10;11.53;;;6.10;;
5989;SDS011;14149;53.562;10.032;2022-08-05T06:56:36;11.60;;;6.70;;
5989;SDS011;14149;53.562;10.032;2022-08-05T06:59:03;11.33;;;5.80;;
5989;SDS011;14149;53.562;10.032;2022-08-05T07:01:29;13.97;;;6.40;;
5989;SDS011;14149;53.562;10.032;2022-08-05T07:03:55;10.17;;;6.37;;
5989;SDS011;14149;53.562;10.032;2022-08-05T07:06:22;11.17;;;6.20;;
5989;SDS011;14149;53.562;10.032;2022-08-05T07:08:48;10.40;;;5.57;;
5989;SDS011;14149;53.562;10.032;2022-08-05T07:11:14;11.37;;;5.30;;
5989;SDS011;14149;53.562;10.032;2022-08-05T07:13:41;11.60;;;5.47;;
5989;SDS011;14149;53.562;10.032;2022-08-05T07:16:26;11.50;;;6.03;;
5989;SDS011;14149;53.562;10.032;2022-08-05T07:19:11;10.13;;;5.30;;
5989;SDS011;14149;53.562;10.032;2022-08-05T07:21:37;10.27;;;5.13;;
5989;SDS011;14149;53.562;10.032;2022-08-05T07:24:03;12.83;;;5.20;;
5989;SDS011;14149;53.562;10.032;2022-08-05T07:26:30;10.70;;;4.70;;
5989;SDS011;14149;53.562;10.032;2022-08-05T07:28:56;11.10;;;5.40;;
5989;SDS011;14149;53.562;10.032;2022-08-05T07:31:22;11.30;;;5.40;;
5989;SDS011;14149;53.562;10.032;2022-08-05T07:33:48;11.30;;;5.30;;
5989;SDS011;14149;53.562;10.032;2022-08-05T07:36:14;11.07;;;5.10;;
5989;SDS011;14149;53.562;10.032;2022-08-05T07:38:40;11.57;;;5.10;;
5989;SDS011;14149;53.562;10.032;2022-08-05T07:41:07;12.03;;;5.83;;
5989;SDS011;14149;53.562;10.032;2022-08-05T07:43:34;10.27;;;4.90;;
5989;SDS011;14149;53.562;10.032;2022-08-05T07:46:00;11.50;;;5.70;;
5989;SDS011;14149;53.562;10.032;2022-08-05T07:48:26;13.23;;;6.43;;
5989;SDS011;14149;53.562;10.032;2022-08-05T07:50:52;11.40;;;5.33;;
5989;SDS011;14149;53.562;10.032;2022-08-05T07:53:18;18.27;;;5.60;;
5989;SDS011;14149;53.562;10.032;2022-08-05T07:55:44;9.47;;;5.17;;
5989;SDS011;14149;53.562;10.032;2022-08-05T07:58:10;14.70;;;5.43;;
5989;SDS011;14149;53.562;10.032;2022-08-05T08:00:36;10.73;;;5.90;;
5989;SDS011;14149;53.562;10.032;2022-08-05T08:03:02;10.07;;;4.80;;
5989;SDS011;14149;53.562;10.032;2022-08-05T08:05:28;11.97;;;5.63;;
5989;SDS011;14149;53.562;10.032;2022-08-05T08:07:54;14.27;;;5.47;;
5989;SDS011;14149;53.562;10.032;2022-08-05T08:10:21;8.83;;;5.10;;
5989;SDS011;14149;53.562;10.032;2022-08-05T08:12:48;10.10;;;5.10;;
5989;SDS011;14149;53.562;10.032;2022-08-05T08:15:14;9.17;;;5.30;;
5989;SDS011;14149;53.562;10.032;2022-08-05T08:17:40;13.17;;;5.27;;
5989;SDS011;14149;53.562;10.032;2022-08-05T08:20:06;11.33;;;5.43;;
5989;SDS011;14149;53.562;10.032;2022-08-05T08:22:32;10.47;;;5.20;;
5989;SDS011;14149;53.562;10.032;2022-08-05T08:24:59;9.03;;;5.20;;
5989;SDS011;14149;53.562;10.032;2022-08-05T08:27:25;8.97;;;5.30;;
5989;SDS011;14149;53.562;10.032;2022-08-05T08:29:51;10.00;;;5.80;;
5989;SDS011;14149;53.562;10.032;2022-08-05T08:32:17;9.87;;;4.97;;
5989;SDS011;14149;53.562;10.032;2022-08-05T08:34:43;9.97;;;4.77;;
5989;SDS011;14149;53.562;10.032;2022-08-05T08:37:09;17.13;;;6.47;;
5989;SDS011;14149;53.562;10.032;2022-08-05T08:39:35;19.20;;;5.60;;
5989;SDS011;14149;53.562;10.032;2022-08-05T08:42:01;10.23;;;5.67;;
5989;SDS011;14149;53.562;10.032;2022-08-05T08:44:29;10.53;;;5.13;;
5989;SDS011;14149;53.562;10.032;2022-08-05T08:46:55;11.90;;;5.87;;
5989;SDS011;14149;53.562;10.032;2022-08-05T08:49:22;10.77;;;5.60;;
5989;SDS011;14149;53.562;10.032;2022-08-05T08:51:52;10.17;;;5.43;;
5989;SDS011;14149;53.562;10.032;2022-08-05T08:54:19;11.70;;;4.80;;
5989;SDS011;14149;53.562;10.032;2022-08-05T08:56:45;14.83;;;5.23;;
5989;SDS011;14149;53.562;10.032;2022-08-05T08:59:11;9.33;;;5.67;;
5989;SDS011;14149;53.562;10.032;2022-08-05T09:01:37;10.20;;;5.60;;
5989;SDS011;14149;53.562;10.032;2022-08-05T09:04:06;10.30;;;5.10;;
5989;SDS011;14149;53.562;10.032;2022-08-05T09:06:32;9.17;;;5.10;;
5989;SDS011;14149;53.562;10.032;2022-08-05T09:08:59;9.87;;;4.77;;
5989;SDS011;14149;53.562;10.032;2022-08-05T09:11:26;11.77;;;6.27;;
5989;SDS011;14149;53.562;10.032;2022-08-05T09:13:52;8.77;;;5.03;;
5989;SDS011;14149;53.562;10.032;2022-08-05T09:16:19;7.87;;;4.63;;
5989;SDS011;14149;53.562;10.032;2022-08-05T09:18:45;11.20;;;4.40;;
5989;SDS011;14149;53.562;10.032;2022-08-05T09:21:12;8.33;;;4.40;;
5989;SDS011;14149;53.562;10.032;2022-08-05T09:23:38;9.50;;;5.00;;
5989;SDS011;14149;53.562;10.032;2022-08-05T09:26:08;9.37;;;5.00;;
5989;SDS011;14149;53.562;10.032;2022-08-05T09:28:36;10.43;;;4.33;;
5989;SDS011;14149;53.562;10.032;2022-08-05T09:31:12;9.10;;;4.23;;
5989;SDS011;14149;53.562;10.032;2022-08-05T09:33:52;12.30;;;4.97;;
5989;SDS011;14149;53.562;10.032;2022-08-05T09:36:18;7.27;;;4.03;;
5989;SDS011;14149;53.562;10.032;2022-08-05T09:38:54;11.00;;;4.47;;
5989;SDS011;14149;53.562;10.032;2022-08-05T09:41:21;7.80;;;3.93;;
5989;SDS011;14149;53.562;10.032;2022-08-05T09:43:47;8.00;;;3.60;;
5989;SDS011;14149;53.562;10.032;2022-08-05T09:46:23;10.23;;;3.70;;
5989;SDS011;14149;53.562;10.032;2022-08-05T09:48:51;12.37;;;3.97;;
5989;SDS011;14149;53.562;10.032;2022-08-05T09:51:27;8.17;;;4.13;;
5989;SDS011;14149;53.562;10.032;2022-08-05T09:53:55;9.00;;;4.43;;
5989;SDS011;14149;53.562;10.032;2022-08-05T09:56:25;8.17;;;4.20;;
5989;SDS011;14149;53.562;10.032;2022-08-05T09:58:55;12.83;;;5.00;;
5989;SDS011;14149;53.562;10.032;2022-08-05T10:01:21;10.00;;;4.13;;
5989;SDS011;14149;53.562;10.032;2022-08-05T10:03:57;11.33;;;4.33;;
5989;SDS011;14149;53.562;10.032;2022-08-05T10:06:24;11.30;;;4.80;;
5989;SDS011;14149;53.562;10.032;2022-08-05T10:08:54;10.50;;;4.87;;
5989;SDS011;14149;53.562;10.032;2022-08-05T10:11:20;9.17;;;4.40;;
5989;SDS011;14149;53.562;10.032;2022-08-05T10:13:47;10.20;;;3.60;;
5989;SDS011;14149;53.562;10.032;2022-08-05T10:18:58;7.67;;;4.00;;
5989;SDS011;14149;53.562;10.032;2022-08-05T10:21:24;10.23;;;4.60;;
5989;SDS011;14149;53.562;10.032;2022-08-05T10:23:51;11.20;;;4.60;;
5989;SDS011;14149;53.562;10.032;2022-08-05T10:26:17;9.20;;;4.60;;
5989;SDS011;14149;53.562;10.032;2022-08-05T10:28:44;13.37;;;4.90;;
5989;SDS011;14149;53.562;10.032;2022-08-05T10:31:11;14.73;;;5.60;;
5989;SDS011;14149;53.562;10.032;2022-08-05T10:33:38;10.93;;;5.27;;
5989;SDS011;14149;53.562;10.032;2022-08-05T10:36:04;14.37;;;5.63;;
5989;SDS011;14149;53.562;10.032;2022-08-05T10:38:31;11.83;;;4.87;;
5989;SDS011;14149;53.562;10.032;2022-08-05T10:41:01;13.20;;;5.07;;
5989;SDS011;14149;53.562;10.032;2022-08-05T10:46:13;8.03;;;3.87;;
5989;SDS011;14149;53.562;10.032;2022-08-05T10:48:41;7.10;;;3.57;;
5989;SDS011;14149;53.562;10.032;2022-08-05T10:51:08;7.77;;;3.80;;
5989;SDS011;14149;53.562;10.032;2022-08-05T10:53:36;9.40;;;4.30;;
5989;SDS011;14149;53.562;10.032;2022-08-05T10:56:07;9.83;;;3.90;;
5989;SDS011;14149;53.562;10.032;2022-08-05T10:58:33;8.67;;;4.17;;
5989;SDS011;14149;53.562;10.032;2022-08-05T11:01:03;7.80;;;4.23;;
5989;SDS011;14149;53.562;10.032;2022-08-05T11:03:30;7.00;;;3.80;;
5989;SDS011;14149;53.562;10.032;2022-08-05T11:06:03;8.53;;;4.27;;
5989;SDS011;14149;53.562;10.032;2022-08-05T11:08:29;8.70;;;5.17;;
5989;SDS011;14149;53.562;10.032;2022-08-05T11:10:55;10.97;;;4.70;;
5989;SDS011;14149;53.562;10.032;2022-08-05T11:13:42;9.23;;;4.80;;
5989;SDS011;14149;53.562;10.032;2022-08-05T11:16:21;10.27;;;4.70;;
5989;SDS011;14149;53.562;10.032;2022-08-05T11:18:47;9.70;;;5.43;;
5989;SDS011;14149;53.562;10.032;2022-08-05T11:21:34;10.40;;;4.60;;
5989;SDS011;14149;53.562;10.032;2022-08-05T11:24:06;9.23;;;4.73;;
5989;SDS011;14149;53.562;10.032;2022-08-05T11:26:35;8.43;;;3.70;;
5989;SDS011;14149;53.562;10.032;2022-08-05T11:29:02;9.03;;;3.63;;
5989;SDS011;14149;53.562;10.032;2022-08-05T11:31:29;7.40;;;3.10;;
5989;SDS011;14149;53.562;10.032;2022-08-05T11:33:57;7.53;;;3.93;;
5989;SDS011;14149;53.562;10.032;2022-08-05T11:36:45;7.07;;;3.43;;
5989;SDS011;14149;53.562;10.032;2022-08-05T11:39:11;12.10;;;3.93;;
5989;SDS011;14149;53.562;10.032;2022-08-05T11:41:37;7.23;;;3.47;;
5989;SDS011;14149;53.562;10.032;2022-08-05T11:44:10;9.50;;;3.77;;
5989;SDS011;14149;53.562;10.032;2022-08-05T11:46:44;7.90;;;3.80;;
5989;SDS011;14149;53.562;10.032;2022-08-05T11:49:12;10.70;;;3.67;;
5989;SDS011;14149;53.562;10.032;2022-08-05T11:51:42;6.70;;;3.30;;
5989;SDS011;14149;53.562;10.032;2022-08-05T11:54:12;7.90;;;3.27;;
5989;SDS011;14149;53.562;10.032;2022-08-05T11:56:42;7.60;;;3.17;;
5989;SDS011;14149;53.562;10.032;2022-08-05T11:59:15;9.70;;;3.60;;
5989;SDS011;14149;53.562;10.032;2022-08-05T12:01:51;7.00;;;3.60;;
5989;SDS011;14149;53.562;10.032;2022-08-05T12:04:17;7.10;;;3.30;;
5989;SDS011;14149;53.562;10.032;2022-08-05T12:06:43;6.43;;;3.13;;
5989;SDS011;14149;53.562;10.032;2022-08-05T12:09:09;9.10;;;4.57;;
5989;SDS011;14149;53.562;10.032;2022-08-05T12:11:36;10.57;;;3.93;;
5989;SDS011;14149;53.562;10.032;2022-08-05T12:14:03;8.77;;;3.97;;
5989;SDS011;14149;53.562;10.032;2022-08-05T12:16:42;9.27;;;5.27;;
5989;SDS011;14149;53.562;10.032;2022-08-05T12:19:10;6.93;;;3.63;;
5989;SDS011;14149;53.562;10.032;2022-08-05T12:21:46;8.70;;;4.27;;
5989;SDS011;14149;53.562;10.032;2022-08-05T12:24:14;8.10;;;4.47;;
5989;SDS011;14149;53.562;10.032;2022-08-05T12:26:45;7.60;;;3.87;;
5989;SDS011;14149;53.562;10.032;2022-08-05T12:31:38;7.80;;;4.20;;
5989;SDS011;14149;53.562;10.032;2022-08-05T12:34:05;9.13;;;4.40;;
5989;SDS011;14149;53.562;10.032;2022-08-05T12:36:32;9.67;;;4.47;;
5989;SDS011;14149;53.562;10.032;2022-08-05T12:38:58;13.43;;;5.00;;
5989;SDS011;14149;53.562;10.032;2022-08-05T12:41:34;14.73;;;5.47;;
5989;SDS011;14149;53.562;10.032;2022-08-05T12:44:05;13.23;;;5.17;;
5989;SDS011;14149;53.562;10.032;2022-08-05T12:46:32;10.40;;;5.10;;
5989;SDS011;14149;53.562;10.032;2022-08-05T12:49:04;8.57;;;4.50;;
5989;SDS011;14149;53.562;10.032;2022-08-05T12:51:41;9.97;;;4.73;;
5989;SDS011;14149;53.562;10.032;2022-08-05T12:54:08;8.27;;;4.73;;
5989;SDS011;14149;53.562;10.032;2022-08-05T12:56:34;9.20;;;4.33;;
5989;SDS011;14149;53.562;10.032;2022-08-05T13:01:44;13.50;;;5.33;;
5989;SDS011;14149;53.562;10.032;2022-08-05T13:04:11;7.83;;;4.37;;
5989;SDS011;14149;53.562;10.032;2022-08-05T13:06:38;9.73;;;4.40;;
5989;SDS011;14149;53.562;10.032;2022-08-05T13:09:05;7.43;;;3.67;;
5989;SDS011;14149;53.562;10.032;2022-08-05T13:11:32;12.93;;;4.50;;
5989;SDS011;14149;53.562;10.032;2022-08-05T13:13:58;10.20;;;4.40;;
5989;SDS011;14149;53.562;10.032;2022-08-05T13:16:24;11.60;;;4.73;;
5989;SDS011;14149;53.562;10.032;2022-08-05T13:18:51;8.10;;;4.17;;
5989;SDS011;14149;53.562;10.032;2022-08-05T13:21:17;9.43;;;3.97;;
5989;SDS011;14149;53.562;10.032;2022-08-05T13:23:43;13.13;;;4.40;;
5989;SDS011;14149;53.562;10.032;2022-08-05T13:26:09;9.37;;;3.93;;
5989;SDS011;14149;53.562;10.032;2022-08-05T13:28:36;8.60;;;3.70;;
5989;SDS011;14149;53.562;10.032;2022-08-05T13:31:02;10.03;;;4.50;;
5989;SDS011;14149;53.562;10.032;2022-08-05T13:33:28;8.03;;;3.13;;
5989;SDS011;14149;53.562;10.032;2022-08-05T13:35:54;10.50;;;4.53;;
5989;SDS011;14149;53.562;10.032;2022-08-05T13:38:20;6.73;;;3.03;;
5989;SDS011;14149;53.562;10.032;2022-08-05T13:40:48;8.80;;;4.03;;
5989;SDS011;14149;53.562;10.032;2022-08-05T13:43:14;7.10;;;3.33;;
5989;SDS011;14149;53.562;10.032;2022-08-05T13:45:41;11.50;;;3.50;;
5989;SDS011;14149;53.562;10.032;2022-08-05T13:48:07;14.90;;;3.90;;
5989;SDS011;14149;53.562;10.032;2022-08-05T13:50:34;7.10;;;3.73;;
5989;SDS011;14149;53.562;10.032;2022-08-05T13:53:00;8.10;;;3.40;;
5989;SDS011;14149;53.562;10.032;2022-08-05T13:55:26;8.23;;;3.40;;
5989;SDS011;14149;53.562;10.032;2022-08-05T13:57:52;9.10;;;3.67;;
5989;SDS011;14149;53.562;10.032;2022-08-05T14:00:21;6.83;;;3.03;;
5989;SDS011;14149;53.562;10.032;2022-08-05T14:02:47;10.67;;;3.07;;
5989;SDS011;14149;53.562;10.032;2022-08-05T14:05:13;8.70;;;3.40;;
5989;SDS011;14149;53.562;10.032;2022-08-05T14:07:40;7.00;;;2.90;;
5989;SDS011;14149;53.562;10.032;2022-08-05T14:10:17;7.80;;;3.30;;
5989;SDS011;14149;53.562;10.032;2022-08-05T14:12:43;10.63;;;3.70;;
5989;SDS011;14149;53.562;10.032;2022-08-05T14:15:10;10.10;;;3.40;;
5989;SDS011;14149;53.562;10.032;2022-08-05T14:17:36;7.23;;;3.33;;
5989;SDS011;14149;53.562;10.032;2022-08-05T14:20:03;14.13;;;3.73;;
5989;SDS011;14149;53.562;10.032;2022-08-05T14:22:30;12.60;;;3.60;;
5989;SDS011;14149;53.562;10.032;2022-08-05T14:24:56;7.87;;;3.50;;
5989;SDS011;14149;53.562;10.032;2022-08-05T14:27:22;10.83;;;4.70;;
5989;SDS011;14149;53.562;10.032;2022-08-05T14:29:48;7.83;;;3.40;;
5989;SDS011;14149;53.562;10.032;2022-08-05T14:32:15;10.67;;;3.63;;
5989;SDS011;14149;53.562;10.032;2022-08-05T14:34:41;10.80;;;3.67;;
5989;SDS011;14149;53.562;10.032;2022-08-05T14:37:07;7.63;;;3.30;;
5989;SDS011;14149;53.562;10.032;2022-08-05T14:39:33;7.60;;;3.77;;
5989;SDS011;14149;53.562;10.032;2022-08-05T14:42:00;8.37;;;4.20;;
5989;SDS011;14149;53.562;10.032;2022-08-05T14:44:26;7.30;;;3.40;;
5989;SDS011;14149;53.562;10.032;2022-08-05T14:46:52;10.10;;;3.53;;
5989;SDS011;14149;53.562;10.032;2022-08-05T14:49:18;13.17;;;3.70;;
5989;SDS011;14149;53.562;10.032;2022-08-05T14:51:44;7.30;;;3.60;;
5989;SDS011;14149;53.562;10.032;2022-08-05T14:54:10;12.87;;;4.63;;
5989;SDS011;14149;53.562;10.032;2022-08-05T14:56:37;8.03;;;3.60;;
5989;SDS011;14149;53.562;10.032;2022-08-05T14:59:03;8.27;;;4.03;;
5989;SDS011;14149;53.562;10.032;2022-08-05T15:01:29;10.83;;;3.93;;
5989;SDS011;14149;53.562;10.032;2022-08-05T15:03:55;8.37;;;3.53;;